createdAt,value
2022-08-26T00:00:42.503Z,83.87
2022-08-26T00:01:44.794Z,83.77
2022-08-26T00:02:42.421Z,83.77
2022-08-26T00:03:42.477Z,83.97
2022-08-26T00:04:42.421Z,84.17
2022-08-26T00:05:42.421Z,84.51
2022-08-26T00:06:46.100Z,84.61
2022-08-26T00:07:42.360Z,84.61
2022-08-26T00:08:42.345Z,84.57
2022-08-26T00:09:42.348Z,84.47
2022-08-26T00:10:43.347Z,84.27
2022-08-26T00:11:42.311Z,84.07
2022-08-26T00:12:42.303Z,84.07
2022-08-26T00:13:42.286Z,83.97
2022-08-26T00:14:43.270Z,84.27
2022-08-26T00:15:42.261Z,84.91
2022-08-26T00:16:48.042Z,85.11
2022-08-26T00:17:43.223Z,85.31
2022-08-26T00:18:42.219Z,85.41
2022-08-26T00:19:42.224Z,85.31
2022-08-26T00:20:42.863Z,85.11
2022-08-26T00:21:42.199Z,85.41
2022-08-26T00:22:42.158Z,85.51
2022-08-26T00:23:42.150Z,85.41
2022-08-26T00:24:47.935Z,85.41
2022-08-26T00:25:43.123Z,85.41
2022-08-26T00:26:42.134Z,85.27
2022-08-26T00:27:42.102Z,85.17
2022-08-26T00:28:42.084Z,85.41
2022-08-26T00:29:42.114Z,85.71
2022-08-26T00:30:42.062Z,86.01
2022-08-26T00:31:42.161Z,86.11
2022-08-26T00:32:42.026Z,86.21
2022-08-26T00:33:42.050Z,86.01
2022-08-26T00:34:42.051Z,86.21
2022-08-26T00:35:43.838Z,86.31
2022-08-26T00:36:41.979Z,86.21
2022-08-26T00:37:41.966Z,85.91
2022-08-26T00:38:42.001Z,86.01
2022-08-26T00:39:41.956Z,85.91
2022-08-26T00:40:41.909Z,85.81
2022-08-26T00:41:41.913Z,86.21
2022-08-26T00:42:46.151Z,86.31
2022-08-26T00:43:47.371Z,86.51
2022-08-26T00:44:42.885Z,86.51
2022-08-26T00:45:41.930Z,86.31
2022-08-26T00:46:44.967Z,86.21
2022-08-26T00:47:42.872Z,86.21
2022-08-26T00:48:41.809Z,86.51
2022-08-26T00:49:41.845Z,86.61
2022-08-26T00:50:41.794Z,86.41
2022-08-26T00:51:41.777Z,86.41
2022-08-26T00:52:41.762Z,86.61
2022-08-26T00:53:41.768Z,86.85
2022-08-26T00:54:42.319Z,87.11
2022-08-26T00:55:41.791Z,87.01
2022-08-26T00:56:41.709Z,86.91
2022-08-26T00:57:41.722Z,87.01
2022-08-26T00:58:41.673Z,87.01
2022-08-26T00:59:41.666Z,87.01
2022-08-26T01:00:41.734Z,86.81
2022-08-26T01:01:41.644Z,86.91
2022-08-26T01:02:46.875Z,87.01
2022-08-26T01:03:42.649Z,87.11
2022-08-26T01:04:41.606Z,87.25
2022-08-26T01:05:41.607Z,87.45
2022-08-26T01:06:41.574Z,87.30
2022-08-26T01:07:41.580Z,87.11
2022-08-26T01:08:41.553Z,87.25
2022-08-26T01:09:41.557Z,87.21
2022-08-26T01:10:41.587Z,87.11
2022-08-26T01:11:41.515Z,87.11
2022-08-26T01:12:41.503Z,87.11
2022-08-26T01:13:41.529Z,87.11
2022-08-26T01:14:41.508Z,87.01
2022-08-26T01:15:42.489Z,87.01
2022-08-26T01:16:42.347Z,86.91
2022-08-26T01:17:41.439Z,86.91
2022-08-26T01:18:41.471Z,86.91
2022-08-26T01:19:41.420Z,87.15
2022-08-26T01:20:41.401Z,87.35
2022-08-26T01:21:41.393Z,87.41
2022-08-26T01:22:41.367Z,87.30
2022-08-26T01:23:41.362Z,87.41
2022-08-26T01:24:41.363Z,87.41
2022-08-26T01:25:43.052Z,87.35
2022-08-26T01:26:41.376Z,87.35
2022-08-26T01:27:41.347Z,87.55
2022-08-26T01:28:41.301Z,87.75
2022-08-26T01:29:41.291Z,87.95
2022-08-26T01:30:41.297Z,88.05
2022-08-26T01:31:41.321Z,88.49
2022-08-26T01:32:41.238Z,88.79
2022-08-26T01:33:42.456Z,88.99
2022-08-26T01:34:41.217Z,88.99
2022-08-26T01:35:41.262Z,88.89
2022-08-26T01:36:41.204Z,88.79
2022-08-26T01:37:45.035Z,88.59
2022-08-26T01:38:41.165Z,88.69
2022-08-26T01:39:41.274Z,88.65
2022-08-26T01:40:41.128Z,88.55
2022-08-26T01:41:41.138Z,88.35
2022-08-26T01:42:41.124Z,88.39
2022-08-26T01:43:41.132Z,88.45
2022-08-26T01:44:41.081Z,88.49
2022-08-26T01:45:41.170Z,88.69
2022-08-26T01:46:41.065Z,88.79
2022-08-26T01:47:41.516Z,88.79
2022-08-26T01:48:41.019Z,88.69
2022-08-26T01:49:41.088Z,88.69
2022-08-26T01:50:41.142Z,88.69
2022-08-26T01:51:40.989Z,88.59
2022-08-26T01:52:40.968Z,88.59
2022-08-26T01:53:41.768Z,88.79
2022-08-26T01:54:41.945Z,88.79
2022-08-26T01:55:40.968Z,88.99
2022-08-26T01:56:40.938Z,89.19
2022-08-26T01:57:40.921Z,89.19
2022-08-26T01:58:40.897Z,89.19
2022-08-26T01:59:40.885Z,89.19
2022-08-26T02:00:40.943Z,88.99
2022-08-26T02:01:40.881Z,88.99
2022-08-26T02:02:40.861Z,88.99
2022-08-26T02:03:42.361Z,89.19
2022-08-26T02:04:40.869Z,89.29
2022-08-26T02:05:40.815Z,89.29
2022-08-26T02:06:40.809Z,89.29
2022-08-26T02:07:40.825Z,89.39
2022-08-26T02:08:40.763Z,89.59
2022-08-26T02:09:44.768Z,89.59
2022-08-26T02:10:40.811Z,89.39
2022-08-26T02:11:40.757Z,89.83
2022-08-26T02:12:40.776Z,90.23
2022-08-26T02:13:40.732Z,90.44
2022-08-26T02:14:43.662Z,90.44
2022-08-26T02:15:40.693Z,90.44
2022-08-26T02:16:42.597Z,90.53
2022-08-26T02:17:40.646Z,90.33
2022-08-26T02:18:40.663Z,90.13
2022-08-26T02:19:44.580Z,90.13
2022-08-26T02:20:40.619Z,90.23
2022-08-26T02:21:40.627Z,90.33
2022-08-26T02:22:40.577Z,90.33
2022-08-26T02:23:40.632Z,90.44
2022-08-26T02:24:51.782Z,90.44
2022-08-26T02:25:40.588Z,90.73
2022-08-26T02:26:40.539Z,90.73
2022-08-26T02:27:40.539Z,90.88
2022-08-26T02:28:40.501Z,90.98
2022-08-26T02:29:40.536Z,91.08
2022-08-26T02:30:40.506Z,91.28
2022-08-26T02:31:40.528Z,91.38
2022-08-26T02:32:41.386Z,91.58
2022-08-26T02:33:43.185Z,91.48
2022-08-26T02:34:40.441Z,91.33
2022-08-26T02:35:40.423Z,91.13
2022-08-26T02:36:40.405Z,90.94
2022-08-26T02:37:41.892Z,91.08
2022-08-26T02:38:40.375Z,91.28
2022-08-26T02:39:40.371Z,91.28
2022-08-26T02:40:40.347Z,91.38
2022-08-26T02:41:44.875Z,91.44
2022-08-26T02:42:40.337Z,91.28
2022-08-26T02:43:40.315Z,91.48
2022-08-26T02:44:40.293Z,91.58
2022-08-26T02:45:40.316Z,91.58
2022-08-26T02:46:40.326Z,91.48
2022-08-26T02:47:40.278Z,91.58
2022-08-26T02:48:40.255Z,91.67
2022-08-26T02:49:40.239Z,91.88
2022-08-26T02:50:40.259Z,91.98
2022-08-26T02:51:40.222Z,91.98
2022-08-26T02:52:40.203Z,91.88
2022-08-26T02:53:40.200Z,91.98
2022-08-26T02:54:40.855Z,91.98
2022-08-26T02:55:40.165Z,91.88
2022-08-26T02:56:40.136Z,91.98
2022-08-26T02:57:40.243Z,91.88
2022-08-26T02:58:40.125Z,91.88
2022-08-26T02:59:40.103Z,91.78
2022-08-26T03:00:52.603Z,91.78
2022-08-26T03:01:41.215Z,91.78
2022-08-26T03:02:40.092Z,91.78
2022-08-26T03:03:40.063Z,91.78
2022-08-26T03:04:40.075Z,91.67
2022-08-26T03:05:40.030Z,91.67
2022-08-26T03:06:41.459Z,91.58
2022-08-26T03:07:40.017Z,91.48
2022-08-26T03:08:40.019Z,91.67
2022-08-26T03:09:39.984Z,91.92
2022-08-26T03:10:39.968Z,92.22
2022-08-26T03:11:39.968Z,92.32
2022-08-26T03:12:39.941Z,92.32
2022-08-26T03:13:39.944Z,92.22
2022-08-26T03:14:39.956Z,92.42
2022-08-26T03:15:39.894Z,92.52
2022-08-26T03:16:39.883Z,92.72
2022-08-26T03:17:39.888Z,92.86
2022-08-26T03:18:39.850Z,93.07
2022-08-26T03:19:39.861Z,93.12
2022-08-26T03:20:39.825Z,93.23
2022-08-26T03:21:39.832Z,93.17
2022-08-26T03:22:39.810Z,93.27
2022-08-26T03:23:39.791Z,93.37
2022-08-26T03:24:39.772Z,93.47
2022-08-26T03:25:39.800Z,93.57
2022-08-26T03:26:39.800Z,93.67
2022-08-26T03:27:40.741Z,93.67
2022-08-26T03:28:39.726Z,93.67
2022-08-26T03:29:39.712Z,93.47
2022-08-26T03:30:39.695Z,93.37
2022-08-26T03:31:40.943Z,93.27
2022-08-26T03:32:39.672Z,93.27
2022-08-26T03:33:39.655Z,93.37
2022-08-26T03:34:39.659Z,93.47
2022-08-26T03:35:39.643Z,93.47
2022-08-26T03:36:39.647Z,93.47
2022-08-26T03:37:39.629Z,93.37
2022-08-26T03:38:39.885Z,93.17
2022-08-26T03:39:39.640Z,93.17
2022-08-26T03:40:39.893Z,93.27
2022-08-26T03:41:39.556Z,93.37
2022-08-26T03:42:39.596Z,93.37
2022-08-26T03:43:39.633Z,93.27
2022-08-26T03:44:42.060Z,93.17
2022-08-26T03:45:39.499Z,93.17
2022-08-26T03:46:39.626Z,93.17
2022-08-26T03:47:39.539Z,93.37
2022-08-26T03:48:39.489Z,93.57
2022-08-26T03:49:39.477Z,93.67
2022-08-26T03:50:39.461Z,93.81
2022-08-26T03:51:39.421Z,93.91
2022-08-26T03:52:43.509Z,94.12
2022-08-26T03:53:39.397Z,94.21
2022-08-26T03:54:39.376Z,94.21
2022-08-26T03:55:39.372Z,94.31
2022-08-26T03:56:40.139Z,94.31
2022-08-26T03:57:39.357Z,94.31
2022-08-26T03:58:39.320Z,94.31
2022-08-26T03:59:39.318Z,94.27
2022-08-26T04:00:39.309Z,93.97
2022-08-26T04:01:39.345Z,93.91
2022-08-26T04:02:39.317Z,94.01
2022-08-26T04:03:39.260Z,94.21
2022-08-26T04:04:39.250Z,94.42
2022-08-26T04:05:39.243Z,94.51
2022-08-26T04:06:39.241Z,94.71
2022-08-26T04:07:39.203Z,94.82
2022-08-26T04:08:39.212Z,94.82
2022-08-26T04:09:39.174Z,94.92
2022-08-26T04:10:39.160Z,95.01
2022-08-26T04:11:39.317Z,95.01
2022-08-26T04:12:39.147Z,95.06
2022-08-26T04:13:39.122Z,95.26
2022-08-26T04:14:39.135Z,95.26
2022-08-26T04:15:39.119Z,95.42
2022-08-26T04:16:39.198Z,95.42
2022-08-26T04:17:39.074Z,95.32
2022-08-26T04:18:42.081Z,95.21
2022-08-26T04:19:40.042Z,95.12
2022-08-26T04:20:39.077Z,95.01
2022-08-26T04:21:39.029Z,94.82
2022-08-26T04:22:39.005Z,94.62
2022-08-26T04:23:47.709Z,94.62
2022-08-26T04:24:40.004Z,94.62
2022-08-26T04:25:38.991Z,94.62
2022-08-26T04:26:39.360Z,94.71
2022-08-26T04:27:38.955Z,94.86
2022-08-26T04:28:38.953Z,95.06
2022-08-26T04:29:38.918Z,95.26
2022-08-26T04:30:38.937Z,95.36
2022-08-26T04:31:38.937Z,95.56
2022-08-26T04:32:38.883Z,95.42
2022-08-26T04:33:41.880Z,95.36
2022-08-26T04:34:38.839Z,95.36
2022-08-26T04:35:38.829Z,95.36
2022-08-26T04:36:38.870Z,95.56
2022-08-26T04:37:38.828Z,95.76
2022-08-26T04:38:38.823Z,95.86
2022-08-26T04:39:38.777Z,95.97
2022-08-26T04:40:38.793Z,96.06
2022-08-26T04:41:38.770Z,96.17
2022-08-26T04:42:38.751Z,96.17
2022-08-26T04:43:38.733Z,96.06
2022-08-26T04:44:38.716Z,96.17
2022-08-26T04:45:38.716Z,96.26
2022-08-26T04:46:39.756Z,96.17
2022-08-26T04:47:38.679Z,96.06
2022-08-26T04:48:38.722Z,96.06
2022-08-26T04:49:38.675Z,96.06
2022-08-26T04:50:38.649Z,96.17
2022-08-26T04:51:38.637Z,96.26
2022-08-26T04:52:38.696Z,96.17
2022-08-26T04:53:38.594Z,96.17
2022-08-26T04:54:38.596Z,96.06
2022-08-26T04:55:39.780Z,96.17
2022-08-26T04:56:38.573Z,96.06
2022-08-26T04:57:38.541Z,96.06
2022-08-26T04:58:38.557Z,95.97
2022-08-26T04:59:39.425Z,96.17
2022-08-26T05:00:38.534Z,96.26
2022-08-26T05:01:39.671Z,96.36
2022-08-26T05:02:38.529Z,96.47
2022-08-26T05:03:38.527Z,96.36
2022-08-26T05:04:38.453Z,96.26
2022-08-26T05:05:38.452Z,96.17
2022-08-26T05:06:38.432Z,95.97
2022-08-26T05:07:38.409Z,95.92
2022-08-26T05:08:38.430Z,95.76
2022-08-26T05:09:38.418Z,95.72
2022-08-26T05:10:38.386Z,95.72
2022-08-26T05:11:38.379Z,95.76
2022-08-26T05:12:38.337Z,95.72
2022-08-26T05:13:38.361Z,95.72
2022-08-26T05:14:39.065Z,95.72
2022-08-26T05:15:38.339Z,95.72
2022-08-26T05:16:40.376Z,95.62
2022-08-26T05:17:38.280Z,95.52
2022-08-26T05:18:38.294Z,95.52
2022-08-26T05:19:38.633Z,95.32
2022-08-26T05:20:38.250Z,95.12
2022-08-26T05:21:38.224Z,95.12
2022-08-26T05:22:42.124Z,95.17
2022-08-26T05:23:38.231Z,94.97
2022-08-26T05:24:38.260Z,94.87
2022-08-26T05:25:38.213Z,94.67
2022-08-26T05:26:38.217Z,94.32
2022-08-26T05:27:38.159Z,94.12
2022-08-26T05:28:38.416Z,94.02
2022-08-26T05:29:38.114Z,93.82
2022-08-26T05:30:38.112Z,93.52
2022-08-26T05:31:38.148Z,93.43
2022-08-26T05:32:38.120Z,93.32
2022-08-26T05:33:38.143Z,93.52
2022-08-26T05:34:38.102Z,93.82
2022-08-26T05:35:38.041Z,93.93
2022-08-26T05:36:38.095Z,93.62
2022-08-26T05:37:38.070Z,93.52
2022-08-26T05:38:41.871Z,93.43
2022-08-26T05:39:38.018Z,93.43
2022-08-26T05:40:38.030Z,93.62
2022-08-26T05:41:38.542Z,93.62
2022-08-26T05:42:37.946Z,93.62
2022-08-26T05:43:37.941Z,93.62
2022-08-26T05:44:53.747Z,93.62
2022-08-26T05:45:43.535Z,93.48
2022-08-26T05:46:39.053Z,93.38
2022-08-26T05:47:37.942Z,93.38
2022-08-26T05:48:37.887Z,93.08
2022-08-26T05:49:37.882Z,93.18
2022-08-26T05:50:38.843Z,93.18
2022-08-26T05:51:37.873Z,93.28
2022-08-26T05:52:37.878Z,93.08
2022-08-26T05:53:37.793Z,92.83
2022-08-26T05:54:37.833Z,92.74
2022-08-26T05:55:37.771Z,92.24
2022-08-26T05:56:37.816Z,92.03
2022-08-26T05:57:42.227Z,91.99
2022-08-26T05:58:38.739Z,91.89
2022-08-26T05:59:37.720Z,91.25
2022-08-26T06:00:37.740Z,91.15
2022-08-26T06:01:37.775Z,90.95
2022-08-26T06:02:37.727Z,90.50
2022-08-26T06:03:37.703Z,90.20
2022-08-26T06:04:37.659Z,89.81
2022-08-26T06:05:39.113Z,89.90
2022-08-26T06:06:37.683Z,90.11
2022-08-26T06:07:37.614Z,89.81
2022-08-26T06:08:37.615Z,89.75
2022-08-26T06:09:37.578Z,89.90
2022-08-26T06:10:37.596Z,89.51
2022-08-26T06:11:37.575Z,89.31
2022-08-26T06:12:37.611Z,89.20
2022-08-26T06:13:37.524Z,89.20
2022-08-26T06:14:37.543Z,89.20
2022-08-26T06:15:37.547Z,89.51
2022-08-26T06:16:37.550Z,89.51
2022-08-26T06:17:37.504Z,89.16
2022-08-26T06:18:37.518Z,88.67
2022-08-26T06:19:37.450Z,88.76
2022-08-26T06:20:37.443Z,88.42
2022-08-26T06:21:37.446Z,88.12
2022-08-26T06:22:37.466Z,87.32
2022-08-26T06:23:37.395Z,87.02
2022-08-26T06:24:37.420Z,87.32
2022-08-26T06:25:37.416Z,87.62
2022-08-26T06:26:37.402Z,87.08
2022-08-26T06:27:37.386Z,86.72
2022-08-26T06:28:37.334Z,87.23
2022-08-26T06:29:37.566Z,87.23
2022-08-26T06:30:37.404Z,86.58
2022-08-26T06:31:37.324Z,86.33
2022-08-26T06:32:37.303Z,86.72
2022-08-26T06:33:37.284Z,86.63
2022-08-26T06:34:37.274Z,86.93
2022-08-26T06:35:37.247Z,86.88
2022-08-26T06:36:37.263Z,86.79
2022-08-26T06:37:37.246Z,86.79
2022-08-26T06:38:37.213Z,85.99
2022-08-26T06:39:41.045Z,86.19
2022-08-26T06:40:37.251Z,86.38
2022-08-26T06:41:40.174Z,86.43
2022-08-26T06:42:38.178Z,86.49
2022-08-26T06:43:37.142Z,86.58
2022-08-26T06:44:37.119Z,86.19
2022-08-26T06:45:37.150Z,85.85
2022-08-26T06:46:37.247Z,85.25
2022-08-26T06:47:37.137Z,85.05
2022-08-26T06:48:37.090Z,84.75
2022-08-26T06:49:37.120Z,84.99
2022-08-26T06:50:37.058Z,85.88
2022-08-26T06:51:37.064Z,86.08
2022-08-26T06:52:37.056Z,86.15
2022-08-26T06:53:37.019Z,86.04
2022-08-26T06:54:37.053Z,85.74
2022-08-26T06:55:36.986Z,85.25
2022-08-26T06:56:36.985Z,85.25
2022-08-26T06:57:37.740Z,85.14
2022-08-26T06:58:36.966Z,85.55
2022-08-26T06:59:36.934Z,85.44
2022-08-26T07:00:36.911Z,85.14
2022-08-26T07:01:37.033Z,85.25
2022-08-26T07:02:36.972Z,85.25
2022-08-26T07:03:39.613Z,84.81
2022-08-26T07:04:36.864Z,84.70
2022-08-26T07:05:36.853Z,85.14
2022-08-26T07:06:36.897Z,85.25
2022-08-26T07:07:36.837Z,85.14
2022-08-26T07:08:36.841Z,85.00
2022-08-26T07:09:36.886Z,84.41
2022-08-26T07:10:36.783Z,84.51
2022-08-26T07:11:36.792Z,84.51
2022-08-26T07:12:36.832Z,84.31
2022-08-26T07:13:36.756Z,84.41
2022-08-26T07:14:37.000Z,84.21
2022-08-26T07:15:36.738Z,83.87
2022-08-26T07:16:36.725Z,83.61
2022-08-26T07:17:36.705Z,83.91
2022-08-26T07:18:40.454Z,84.21
2022-08-26T07:19:36.703Z,84.45
2022-08-26T07:20:36.659Z,84.41
2022-08-26T07:21:36.673Z,84.41
2022-08-26T07:22:37.334Z,84.11
2022-08-26T07:23:36.621Z,83.91
2022-08-26T07:24:36.693Z,83.91
2022-08-26T07:25:36.584Z,84.11
2022-08-26T07:26:36.605Z,84.51
2022-08-26T07:27:36.594Z,84.84
2022-08-26T07:28:36.589Z,84.75
2022-08-26T07:29:36.539Z,84.75
2022-08-26T07:30:36.556Z,84.95
2022-08-26T07:31:39.389Z,84.84
2022-08-26T07:32:37.503Z,84.81
2022-08-26T07:33:36.523Z,84.61
2022-08-26T07:34:36.466Z,84.45
2022-08-26T07:35:36.458Z,84.55
2022-08-26T07:36:36.475Z,84.45
2022-08-26T07:37:39.253Z,84.55
2022-08-26T07:38:36.431Z,84.75
2022-08-26T07:39:36.423Z,84.61
2022-08-26T07:40:36.410Z,84.31
2022-08-26T07:41:36.421Z,84.31
2022-08-26T07:42:36.374Z,84.01
2022-08-26T07:43:36.367Z,84.65
2022-08-26T07:44:36.328Z,84.61
2022-08-26T07:45:36.336Z,84.91
2022-08-26T07:46:36.320Z,85.00
2022-08-26T07:47:36.317Z,85.50
2022-08-26T07:48:36.276Z,85.30
2022-08-26T07:49:36.356Z,85.80
2022-08-26T07:50:49.279Z,85.36
2022-08-26T07:51:37.239Z,85.06
2022-08-26T07:52:36.310Z,84.67
2022-08-26T07:53:36.270Z,83.87
2022-08-26T07:54:36.214Z,84.37
2022-08-26T07:55:36.301Z,84.47
2022-08-26T07:56:36.208Z,84.56
2022-08-26T07:57:36.159Z,84.47
2022-08-26T07:58:36.141Z,84.33
2022-08-26T07:59:36.144Z,83.63
2022-08-26T08:00:36.129Z,84.03
2022-08-26T08:01:36.192Z,84.23
2022-08-26T08:02:36.104Z,83.13
2022-08-26T08:03:36.126Z,83.13
2022-08-26T08:04:36.090Z,83.73
2022-08-26T08:05:36.141Z,83.83
2022-08-26T08:06:36.064Z,83.49
2022-08-26T08:07:45.005Z,83.00
2022-08-26T08:08:37.041Z,82.00
2022-08-26T08:09:36.001Z,82.50
2022-08-26T08:10:35.988Z,82.70
2022-08-26T08:11:36.071Z,82.86
2022-08-26T08:12:35.963Z,82.50
2022-08-26T08:13:36.041Z,83.05
2022-08-26T08:14:35.955Z,83.05
2022-08-26T08:15:35.953Z,83.55
2022-08-26T08:16:39.108Z,82.95
2022-08-26T08:17:36.903Z,83.05
2022-08-26T08:18:36.014Z,83.11
2022-08-26T08:19:38.953Z,83.41
2022-08-26T08:20:36.289Z,83.01
2022-08-26T08:21:35.881Z,83.41
2022-08-26T08:22:35.838Z,83.81
2022-08-26T08:23:35.914Z,83.61
2022-08-26T08:24:35.814Z,84.55
2022-08-26T08:25:35.831Z,85.14
2022-08-26T08:26:38.415Z,85.20
2022-08-26T08:27:35.790Z,85.34
2022-08-26T08:28:35.766Z,84.55
2022-08-26T08:29:35.741Z,84.25
2022-08-26T08:30:35.762Z,84.34
2022-08-26T08:32:37.021Z,84.55
2022-08-26T08:33:35.828Z,83.85
2022-08-26T08:34:35.725Z,84.05
2022-08-26T08:35:35.707Z,84.34
2022-08-26T08:36:36.173Z,84.74
2022-08-26T08:37:35.678Z,85.18
2022-08-26T08:38:35.663Z,85.48
2022-08-26T08:39:35.623Z,85.48
2022-08-26T08:40:35.679Z,85.88
2022-08-26T08:41:35.625Z,86.32
2022-08-26T08:42:35.605Z,86.72
2022-08-26T08:43:37.546Z,86.91
2022-08-26T08:44:35.595Z,86.58
2022-08-26T08:45:39.536Z,86.68
2022-08-26T08:46:35.565Z,85.92
2022-08-26T08:47:35.559Z,85.82
2022-08-26T08:48:35.502Z,85.52
2022-08-26T08:49:35.485Z,85.27
2022-08-26T08:50:35.474Z,85.57
2022-08-26T08:51:35.852Z,85.66
2022-08-26T08:52:35.486Z,86.06
2022-08-26T08:53:35.703Z,85.96
2022-08-26T08:54:35.465Z,85.46
2022-08-26T08:55:35.412Z,85.16
2022-08-26T08:56:36.078Z,85.30
2022-08-26T08:57:35.434Z,85.90
2022-08-26T08:58:35.698Z,85.60
2022-08-26T08:59:35.367Z,85.11
2022-08-26T09:00:39.132Z,85.11
2022-08-26T09:01:35.474Z,84.81
2022-08-26T09:02:35.403Z,84.67
2022-08-26T09:03:35.316Z,84.70
2022-08-26T09:04:35.289Z,84.61
2022-08-26T09:05:35.361Z,84.81
2022-08-26T09:06:35.273Z,84.81
2022-08-26T09:07:36.707Z,85.11
2022-08-26T09:08:35.477Z,85.41
2022-08-26T09:09:35.236Z,84.61
2022-08-26T09:10:35.215Z,84.77
2022-08-26T09:11:35.225Z,84.47
2022-08-26T09:12:35.201Z,83.97
2022-08-26T09:13:35.181Z,83.67
2022-08-26T09:14:35.166Z,83.57
2022-08-26T09:15:35.146Z,83.67
2022-08-26T09:16:35.185Z,83.77
2022-08-26T09:17:35.136Z,84.47
2022-08-26T09:18:35.104Z,83.77
2022-08-26T09:19:35.095Z,83.87
2022-08-26T09:20:35.069Z,84.23
2022-08-26T09:21:35.063Z,84.13
2022-08-26T09:22:35.056Z,84.92
2022-08-26T09:23:35.946Z,85.22
2022-08-26T09:24:37.338Z,85.32
2022-08-26T09:25:36.032Z,85.42
2022-08-26T09:26:35.424Z,85.52
2022-08-26T09:27:35.032Z,85.72
2022-08-26T09:28:34.977Z,85.82
2022-08-26T09:29:34.996Z,85.92
2022-08-26T09:30:35.013Z,85.62
2022-08-26T09:31:35.267Z,85.52
2022-08-26T09:32:34.951Z,85.72
2022-08-26T09:33:34.939Z,85.72
2022-08-26T09:34:34.931Z,85.82
2022-08-26T09:35:34.938Z,85.82
2022-08-26T09:36:39.139Z,85.82
2022-08-26T09:37:35.946Z,85.92
2022-08-26T09:38:35.687Z,85.82
2022-08-26T09:39:34.960Z,85.72
2022-08-26T09:40:35.335Z,85.88
2022-08-26T09:41:34.888Z,86.02
2022-08-26T09:42:34.869Z,86.12
2022-08-26T09:43:34.770Z,86.02
2022-08-26T09:44:34.785Z,85.98
2022-08-26T09:45:34.794Z,85.88
2022-08-26T09:46:34.859Z,85.98
2022-08-26T09:47:34.766Z,85.98
2022-08-26T09:48:35.545Z,85.98
2022-08-26T09:49:36.293Z,85.48
2022-08-26T09:50:34.678Z,85.18
2022-08-26T09:51:34.831Z,84.58
2022-08-26T09:52:34.953Z,84.19
2022-08-26T09:53:34.661Z,84.39
2022-08-26T09:54:34.630Z,84.63
2022-08-26T09:55:34.646Z,84.23
2022-08-26T09:56:34.606Z,83.93
2022-08-26T09:57:34.614Z,84.09
2022-08-26T09:58:34.658Z,83.79
2022-08-26T09:59:34.602Z,83.09
2022-08-26T10:00:34.803Z,83.19
2022-08-26T10:01:34.707Z,83.29
2022-08-26T10:02:34.628Z,83.09
2022-08-26T10:03:34.779Z,82.79
2022-08-26T10:04:34.548Z,83.09
2022-08-26T10:05:34.479Z,83.09
2022-08-26T10:06:34.471Z,83.00
2022-08-26T10:07:34.498Z,82.70
2022-08-26T10:08:34.761Z,82.40
2022-08-26T10:09:34.479Z,82.40
2022-08-26T10:10:34.418Z,82.50
2022-08-26T10:11:34.401Z,82.10
2022-08-26T10:12:34.419Z,82.35
2022-08-26T10:13:34.417Z,82.35
2022-08-26T10:14:34.427Z,81.86
2022-08-26T10:15:34.373Z,82.06
2022-08-26T10:16:34.427Z,81.66
2022-08-26T10:17:34.542Z,81.46
2022-08-26T10:18:35.252Z,81.26
2022-08-26T10:19:41.616Z,81.16
2022-08-26T10:20:35.355Z,81.26
2022-08-26T10:21:34.306Z,81.36
2022-08-26T10:22:34.261Z,82.46
2022-08-26T10:23:34.257Z,83.05
2022-08-26T10:24:34.232Z,83.25
2022-08-26T10:25:34.228Z,83.45
2022-08-26T10:26:34.198Z,83.45
2022-08-26T10:27:34.268Z,83.45
2022-08-26T10:28:34.176Z,83.65
2022-08-26T10:29:34.180Z,83.75
2022-08-26T10:30:34.158Z,83.85
2022-08-26T10:31:38.317Z,84.19
2022-08-26T10:32:35.448Z,84.78
2022-08-26T10:33:35.127Z,84.99
2022-08-26T10:34:34.098Z,85.08
2022-08-26T10:35:34.106Z,85.22
2022-08-26T10:36:39.357Z,85.42
2022-08-26T10:37:35.078Z,85.62
2022-08-26T10:38:34.052Z,85.52
2022-08-26T10:39:34.080Z,85.42
2022-08-26T10:40:34.100Z,85.32
2022-08-26T10:41:34.125Z,85.08
2022-08-26T10:42:34.037Z,85.08
2022-08-26T10:43:33.983Z,84.99
2022-08-26T10:44:33.969Z,84.78
2022-08-26T10:45:34.000Z,84.78
2022-08-26T10:46:33.943Z,84.78
2022-08-26T10:47:34.274Z,84.78
2022-08-26T10:48:35.794Z,84.78
2022-08-26T10:49:33.910Z,84.99
2022-08-26T10:50:33.885Z,84.99
2022-08-26T10:51:33.874Z,85.18
2022-08-26T10:52:33.892Z,85.28
2022-08-26T10:53:33.861Z,84.78
2022-08-26T10:54:33.884Z,84.19
2022-08-26T10:55:34.868Z,84.09
2022-08-26T10:56:33.841Z,83.99
2022-08-26T10:57:33.820Z,83.69
2022-08-26T10:58:33.781Z,83.39
2022-08-26T10:59:33.808Z,83.19
2022-08-26T11:00:33.756Z,82.59
2022-08-26T11:01:33.803Z,81.80
2022-08-26T11:02:33.789Z,81.60
2022-08-26T11:03:33.782Z,81.80
2022-08-26T11:04:35.151Z,82.29
2022-08-26T11:05:33.689Z,82.50
2022-08-26T11:06:33.972Z,82.46
2022-08-26T11:07:33.950Z,82.35
2022-08-26T11:08:33.690Z,82.65
2022-08-26T11:09:33.670Z,83.05
2022-08-26T11:10:33.624Z,83.15
2022-08-26T11:11:33.611Z,83.35
2022-08-26T11:12:33.626Z,83.55
2022-08-26T11:13:33.875Z,83.75
2022-08-26T11:14:46.021Z,83.71
2022-08-26T11:15:34.558Z,83.35
2022-08-26T11:16:33.547Z,83.31
2022-08-26T11:17:33.543Z,83.25
2022-08-26T11:18:33.525Z,83.25
2022-08-26T11:19:56.830Z,83.25
2022-08-26T11:20:34.496Z,83.45
2022-08-26T11:21:33.533Z,83.61
2022-08-26T11:22:33.598Z,83.41
2022-08-26T11:23:33.507Z,83.35
2022-08-26T11:24:37.325Z,83.65
2022-08-26T11:25:33.506Z,84.01
2022-08-26T11:26:37.763Z,84.20
2022-08-26T11:27:34.430Z,84.50
2022-08-26T11:28:33.384Z,84.70
2022-08-26T11:29:33.402Z,84.31
2022-08-26T11:30:33.414Z,83.81
2022-08-26T11:31:33.411Z,81.92
2022-08-26T11:32:33.383Z,82.32
2022-08-26T11:33:33.367Z,82.42
2022-08-26T11:34:33.322Z,81.72
2022-08-26T11:35:33.304Z,81.62
2022-08-26T11:36:33.286Z,81.32
2022-08-26T11:37:35.129Z,81.09
2022-08-26T11:38:33.276Z,80.99
2022-08-26T11:39:33.441Z,80.88
2022-08-26T11:40:33.284Z,80.59
2022-08-26T11:41:33.227Z,80.35
2022-08-26T11:42:33.260Z,80.15
2022-08-26T11:43:33.198Z,80.59
2022-08-26T11:44:33.213Z,80.75
2022-08-26T11:45:33.233Z,80.35
2022-08-26T11:46:33.167Z,80.05
2022-08-26T11:47:33.176Z,79.56
2022-08-26T11:48:33.139Z,79.52
2022-08-26T11:49:33.362Z,79.52
2022-08-26T11:50:33.155Z,79.42
2022-08-26T11:51:35.904Z,78.92
2022-08-26T11:52:34.151Z,78.99
2022-08-26T11:53:33.323Z,78.88
2022-08-26T11:54:35.811Z,78.69
2022-08-26T11:55:33.118Z,78.75
2022-08-26T11:56:33.042Z,78.35
2022-08-26T11:57:33.062Z,78.11
2022-08-26T11:58:32.989Z,78.02
2022-08-26T12:00:33.471Z,77.42
2022-08-26T12:01:32.964Z,77.39
2022-08-26T12:02:32.947Z,76.75
2022-08-26T12:03:33.058Z,76.16
2022-08-26T12:04:32.997Z,75.76
2022-08-26T12:05:32.899Z,75.37
2022-08-26T12:06:32.903Z,75.43
2022-08-26T12:07:32.882Z,75.10
2022-08-26T12:08:32.898Z,74.46
2022-08-26T12:09:32.855Z,73.05
2022-08-26T12:10:32.862Z,71.86
2022-08-26T12:11:32.842Z,71.73
2022-08-26T12:12:35.035Z,71.79
2022-08-26T12:13:32.798Z,71.20
2022-08-26T12:14:32.816Z,70.87
2022-08-26T12:15:32.777Z,70.87
2022-08-26T12:16:32.791Z,70.37
2022-08-26T12:17:32.787Z,70.54
2022-08-26T12:18:32.774Z,70.24
2022-08-26T12:19:33.264Z,70.24
2022-08-26T12:20:32.704Z,70.44
2022-08-26T12:21:34.731Z,71.06
2022-08-26T12:22:32.995Z,70.97
2022-08-26T12:23:32.726Z,71.20
2022-08-26T12:24:32.661Z,71.50
2022-08-26T12:25:32.955Z,71.89
2022-08-26T12:26:33.311Z,72.28
2022-08-26T12:27:32.726Z,71.69
2022-08-26T12:28:32.626Z,71.26
2022-08-26T12:29:32.638Z,71.89
2022-08-26T12:30:32.594Z,72.28
2022-08-26T12:31:32.916Z,71.50
2022-08-26T12:32:32.557Z,71.83
2022-08-26T12:33:32.549Z,71.89
2022-08-26T12:34:32.569Z,72.12
2022-08-26T12:35:32.534Z,71.73
2022-08-26T12:36:32.517Z,72.02
2022-08-26T12:37:32.510Z,72.12
2022-08-26T12:38:32.483Z,72.42
2022-08-26T12:39:32.475Z,72.61
2022-08-26T12:40:32.488Z,72.72
2022-08-26T12:41:32.498Z,73.01
2022-08-26T12:42:32.447Z,73.41
2022-08-26T12:43:32.474Z,73.31
2022-08-26T12:44:32.432Z,73.60
2022-08-26T12:45:32.439Z,73.18
2022-08-26T12:46:32.381Z,73.27
2022-08-26T12:47:43.048Z,72.74
2022-08-26T12:48:33.689Z,72.05
2022-08-26T12:49:32.363Z,71.33
2022-08-26T12:50:32.332Z,71.13
2022-08-26T12:51:32.351Z,71.03
2022-08-26T12:52:32.334Z,70.93
2022-08-26T12:53:32.303Z,70.14
2022-08-26T12:54:32.402Z,70.18